Weather History for Delaware, OH

Change the Weather History Date:

Tuesday, May 6, 2014

  Actual Average Record
Temperature  
Mean Temperature 55 °F -  
Max Temperature 69 °F 68 °F 91 °F (1959)
Min Temperature 41 °F 43 °F 28 °F (1968)
Degree Days  
Heating Degree Days 10    
Growing Degree Days 5 (Base 50)    
Moisture  
Dew Point 34 °F    
Average Humidity 44    
Maximum Humidity 81    
Minimum Humidity 26    
Precipitation  
Precipitation 0.00 in - - ()
Sea Level Pressure  
Sea Level Pressure 29.99 in    
Wind  
Wind Speed 6 mph (ENE)    
Max Wind Speed 12 mph    
Max Gust Speed 17 mph    
Visibility 10 miles    
Events      
Averages and records for this station are not official NWS values.
T = Trace of Precipitation, MM = Missing Value Source: NWS Daily Summary

Daily Weather History Graph

Daily Weather History Graph

Search for Another Location

Airport:

Trip Planner

Search our weather history database for the weather conditions in past years. The results will help you decide how hot, cold, wet, or windy it might be!

Date:

Astronomy

May. 06, 2014 Rise Set
Actual Time 6:25 AM EDT 8:32 PM EDT
Civil Twilight 5:56 AM EDT 9:02 PM EDT
Nautical Twilight 5:19 AM EDT 9:39 PM EDT
Astronomical Twilight 4:39 AM EDT 10:19 PM EDT
Moon 12:41 PM EDT (5/6) 1:51 AM EDT (5/6)
Length of Visible Light 15h 06m
Length of Day
14h 06m
Waxing Crescent, 46% of the Moon is Illuminated
May 6
Waxing Crescent
May 6
First Quarter
May 14
Full
May 21
Last Quarter
May 28
New

Hourly Weather History & Observations

Time (EDT) Temp. Windchill Dew Point Humidity Pressure Visibility Wind Dir Wind Speed Gust Speed Precip Events Conditions
12:19 AM 44.6 °F 43.1 °F 32.0 °F 61% 29.94 in 10.0 mi North 3.5 mph - N/A   Clear
12:38 AM 44.6 °F 43.1 °F 33.8 °F 66% 29.94 in 10.0 mi North 3.5 mph - N/A   Clear
12:58 AM 42.8 °F 40.1 °F 33.8 °F 70% 29.93 in 10.0 mi NNE 4.6 mph - N/A   Clear
1:19 AM 42.8 °F 40.1 °F 33.8 °F 70% 29.94 in 10.0 mi North 4.6 mph - N/A   Clear
1:38 AM 42.8 °F 40.1 °F 35.6 °F 76% 29.94 in 10.0 mi NNE 4.6 mph - N/A   Clear
1:58 AM 42.8 °F 41.1 °F 35.6 °F 76% 29.94 in 10.0 mi North 3.5 mph - N/A   Clear
2:18 AM 42.8 °F 38.6 °F 35.6 °F 76% 29.94 in 10.0 mi NNE 6.9 mph - N/A   Clear
2:38 AM 42.8 °F 39.3 °F 35.6 °F 76% 29.94 in 10.0 mi NNE 5.8 mph - N/A   Clear
2:58 AM 42.8 °F 38.6 °F 35.6 °F 76% 29.94 in 10.0 mi NNE 6.9 mph - N/A   Clear
3:18 AM 42.8 °F 40.1 °F 35.6 °F 76% 29.95 in 10.0 mi North 4.6 mph - N/A   Clear
3:38 AM 41.0 °F 38.0 °F 35.6 °F 81% 29.95 in 10.0 mi North 4.6 mph - N/A   Clear
7:58 AM 44.6 °F 40.7 °F 32.0 °F 61% 30.01 in 10.0 mi ENE 6.9 mph - N/A   Clear
8:18 AM 44.6 °F 40.2 °F 32.0 °F 61% 30.01 in 10.0 mi ENE 8.1 mph - N/A   Clear
8:38 AM 46.4 °F 42.9 °F 32.0 °F 57% 30.02 in 10.0 mi ENE 6.9 mph - N/A   Clear
8:58 AM 50.0 °F - 32.0 °F 50% 30.03 in 10.0 mi ENE 6.9 mph - N/A   Clear
9:18 AM 51.8 °F - 32.0 °F 47% 30.03 in 10.0 mi ENE 10.4 mph - N/A   Clear
10:18 AM 55.4 °F - 30.2 °F 38% 30.03 in 10.0 mi East 11.5 mph 17.3 mph N/A   Clear
10:39 AM 55.4 °F - 30.2 °F 38% 30.03 in 10.0 mi East 10.4 mph - N/A   Clear
10:58 AM 57.2 °F - 30.2 °F 36% 30.03 in 10.0 mi East 8.1 mph - N/A   Clear
11:18 AM 59.0 °F - 30.2 °F 34% 30.03 in 10.0 mi East 8.1 mph 16.1 mph N/A   Clear
11:39 AM 60.8 °F - 30.2 °F 31% 30.03 in 10.0 mi East 11.5 mph - N/A   Clear
11:58 AM 60.8 °F - 30.2 °F 31% 30.03 in 10.0 mi East 6.9 mph - N/A   Clear
12:18 PM 60.8 °F - 30.2 °F 31% 30.02 in 10.0 mi East 10.4 mph - N/A   Clear
12:39 PM 62.6 °F - 30.2 °F 30% 30.01 in 10.0 mi NNE 6.9 mph - N/A   Clear
12:58 PM 62.6 °F - 30.2 °F 30% 30.01 in 10.0 mi East 10.4 mph - N/A   Clear
1:18 PM 62.6 °F - 32.0 °F 32% 30.01 in 10.0 mi East 9.2 mph - N/A   Clear
1:38 PM 64.4 °F - 30.2 °F 28% 30.01 in 10.0 mi East 5.8 mph - N/A   Clear
1:58 PM 66.2 °F - 32.0 °F 28% 30.00 in 10.0 mi NE 9.2 mph - N/A   Clear
2:18 PM 66.2 °F - 32.0 °F 28% 30.00 in 10.0 mi NE 9.2 mph - N/A   Clear
2:38 PM 64.4 °F - 32.0 °F 30% 30.00 in 10.0 mi NNE 6.9 mph - N/A   Clear
2:58 PM 68.0 °F - 32.0 °F 26% 30.00 in 10.0 mi East 6.9 mph - N/A   Clear
3:18 PM 66.2 °F - 32.0 °F 28% 29.99 in 10.0 mi East 5.8 mph - N/A   Clear
3:38 PM 68.0 °F - 32.0 °F 26% 29.98 in 10.0 mi North 5.8 mph - N/A   Clear
3:58 PM 68.0 °F - 33.8 °F 28% 29.98 in 10.0 mi ENE 8.1 mph - N/A   Clear
4:19 PM 68.0 °F - 33.8 °F 28% 29.98 in 10.0 mi East 9.2 mph - N/A   Clear
4:58 PM 69.8 °F - 33.8 °F 27% 29.97 in 10.0 mi ENE 10.4 mph - N/A   Clear
5:19 PM 68.0 °F - 33.8 °F 28% 29.97 in 10.0 mi East 5.8 mph - N/A   Clear
5:38 PM 69.8 °F - 33.8 °F 27% 29.97 in 10.0 mi ENE 6.9 mph - N/A   Clear
5:58 PM 68.0 °F - 33.8 °F 28% 29.97 in 10.0 mi ENE 6.9 mph - N/A   Clear
6:18 PM 68.0 °F - 35.6 °F 30% 29.97 in 10.0 mi East 6.9 mph - N/A   Clear
6:38 PM 68.0 °F - 35.6 °F 30% 29.97 in 10.0 mi East 6.9 mph - N/A   Clear
6:58 PM 68.0 °F - 35.6 °F 30% 29.97 in 10.0 mi East 6.9 mph - N/A   Clear
7:19 PM 66.2 °F - 37.4 °F 35% 29.97 in 10.0 mi ENE 9.2 mph - N/A   Clear
7:38 PM 64.4 °F - 37.4 °F 37% 29.97 in 10.0 mi ENE 8.1 mph - N/A   Clear
7:58 PM 64.4 °F - 37.4 °F 37% 29.98 in 10.0 mi ENE 6.9 mph - N/A   Clear
8:19 PM 62.6 °F - 37.4 °F 39% 29.98 in 10.0 mi ENE 6.9 mph - N/A   Clear
8:38 PM 60.8 °F - 37.4 °F 42% 29.98 in 10.0 mi ENE 6.9 mph - N/A   Clear
8:59 PM 60.8 °F - 37.4 °F 42% 29.99 in 10.0 mi ENE 6.9 mph - N/A   Clear
9:18 PM 60.8 °F - 37.4 °F 42% 29.99 in 10.0 mi ENE 8.1 mph - N/A   Clear
9:38 PM 60.8 °F - 37.4 °F 42% 29.99 in 10.0 mi ENE 6.9 mph - N/A   Clear
9:59 PM 59.0 °F - 37.4 °F 45% 30.00 in 10.0 mi ENE 8.1 mph - N/A   Clear
10:18 PM 59.0 °F - 37.4 °F 45% 30.00 in 10.0 mi ENE 5.8 mph - N/A   Clear
10:38 PM 57.2 °F - 37.4 °F 48% 30.00 in 10.0 mi ENE 8.1 mph - N/A   Clear
10:59 PM 55.4 °F - 37.4 °F 51% 30.00 in 10.0 mi ENE 9.2 mph - N/A   Scattered Clouds
11:18 PM 55.4 °F - 37.4 °F 51% 29.98 in 10.0 mi ENE 9.2 mph - N/A   Scattered Clouds
11:38 PM 55.4 °F - 37.4 °F 51% 29.98 in 10.0 mi ENE 8.1 mph - N/A   Clear
11:59 PM 53.6 °F - 37.4 °F 54% 29.98 in 10.0 mi ENE 8.1 mph - N/A   Clear